Virtual United States Air Force

 METAR AND TAF INFORMATION
METAR FOR KEDW
ADDS - METARS form results

(1620 UTC 21 October 2018)
Data provider http://aviationweather.gov/metar/data/
 
METAR text: KEDW 211558Z 00000KT 90SM FEW080 13/M01 A3000 RMK AO2A SLP147 T01331015 $
Conditions at: KEDW (EDWARDS AFB , CA, US) observed 1558 UTC 21 October 2018
Temperature: 13.3°C (56°F)
Dewpoint: -1.5°C (29°F) [RH = 36%]
Pressure (altimeter): 30.00 inches Hg (1016.0 mb)
[Sea-level pressure: 1014.7 mb]
Winds: calm
Visibility: 90 miles (145 km)
Ceiling: at least 12,000 feet AGL
Clouds: few clouds at 8000 feet AGL
Weather:
SOME DATA ABOVE MAY BE INACCURATE!!!
"$" is an indication the sensor requires maintenance

METAR text: KEDW 211543Z AUTO 00000KT 1 3/4SM HZ CLR 13/M02 A3000 RMK AO2 SLP147 $
Conditions at: KEDW (EDWARDS AFB , CA, US) observed 1543 UTC 21 October 2018
Temperature: 13.0°C (55°F)
Dewpoint: -2.0°C (28°F) [RH = 35%]
Pressure (altimeter): 30.00 inches Hg (1016.0 mb)
[Sea-level pressure: 1014.7 mb]
Winds: calm
Visibility: 1.75 miles (2.82 km)
Ceiling: at least 12,000 feet AGL
Clouds: sky clear below 12,000 feet AGL
Weather: HZ  (haze)
SOME DATA ABOVE MAY BE INACCURATE!!!
"$" is an indication the sensor requires maintenance

METAR text: KEDW 211528Z AUTO 00000KT 2SM HZ CLR 12/M01 A3000 RMK AO2 SLP148 $
Conditions at: KEDW (EDWARDS AFB , CA, US) observed 1528 UTC 21 October 2018
Temperature: 12.0°C (54°F)
Dewpoint: -1.0°C (30°F) [RH = 40%]
Pressure (altimeter): 30.00 inches Hg (1016.0 mb)
[Sea-level pressure: 1014.8 mb]
Winds: calm
Visibility: 2.00 miles (3.22 km)
Ceiling: at least 12,000 feet AGL
Clouds: sky clear below 12,000 feet AGL
Weather: HZ  (haze)
SOME DATA ABOVE MAY BE INACCURATE!!!
"$" is an indication the sensor requires maintenance

 AIRPORT MAP

 RUNWAY INFORMATION
Runway 04L Runway length 12000 ft Runway width 200 ft
Runway elevation 2312 ft Runway displaced threshold 0 ft Runway heading 0
Runway 22R Runway length 12000 ft Runway width 200 ft
Runway elevation 2289 ft Runway displaced threshold 0 ft Runway heading 0
Runway 04R Runway length 15024 ft Runway width 300 ft
Runway elevation 2303 ft Runway displaced threshold 0 ft Runway heading 58
Runway 22L Runway length 15024 ft Runway width 300 ft
Runway elevation 2282 ft Runway displaced threshold 0 ft Runway heading 238
Runway 06 Runway length 8000 ft Runway width 50 ft
Runway elevation 2289 ft Runway displaced threshold 0 ft Runway heading 77
Runway 24 Runway length 8000 ft Runway width 50 ft
Runway elevation 2276 ft Runway displaced threshold 0 ft Runway heading 257

 AIRPORT FREQUENCIES
Type A/D Name SPORT APP/ Frequency 132.75 MHZ
Type ATIS Name ATIS Frequency 26.99 MHZ
Type GND Name GND Frequency 121.8 MHZ
Type MISC Name NASA FLT O Frequency 135.825 MHZ
Type PMSV Name PMSV METRO Frequency 34.24 MHZ
Type POST Name COMD POST Frequency 30.4 MHZ
Type PTD Name PTD Frequency 37.22 MHZ
Type TWR Name TWR Frequency 120.7 MHZ

 AIRPORT NEAR NAVIGATION AIDS


Neither the Department of the Air Force, nor any other component of the Department of Defense or Federal Government has approved, endorsed, or authorized this promotion, activity, or organization. Virtual United States Air Force organization is in no way affiliated with the Department of Defense, Department of the Air Force, or any other federal or government entity. Virtual United States Air Force is a group of flight simulation enthusiasts with the common interest of promoting enjoyment and cameraderie through the simulation of military operations and procedures utilizing several flight simulation platforms.

Copyright © vUSAF, LLC // 2018 All Rights Reserved